createdAt,value
2024-02-17T00:04:56.431Z,101315.16
2024-02-17T00:09:58.662Z,101325.44
2024-02-17T00:15:01.212Z,101313.50
2024-02-17T00:20:04.973Z,101301.66
2024-02-17T00:25:07.569Z,101314.00
2024-02-17T00:30:10.423Z,101310.22
2024-02-17T00:35:12.947Z,101310.47
2024-02-17T00:40:15.408Z,101307.50
2024-02-17T00:45:17.648Z,101308.37
2024-02-17T00:50:20.030Z,101309.22
2024-02-17T00:55:22.277Z,101308.22
2024-02-17T01:00:24.573Z,101305.34
2024-02-17T01:05:26.813Z,101309.09
2024-02-17T01:10:30.473Z,101308.31
2024-02-17T01:15:32.645Z,101300.78
2024-02-17T01:20:35.066Z,101307.91
2024-02-17T01:25:37.215Z,101305.41
2024-02-17T01:30:39.559Z,101305.81
2024-02-17T01:35:41.883Z,101304.16
2024-02-17T01:40:44.242Z,101305.00
2024-02-17T01:45:47.613Z,101304.37
2024-02-17T01:50:49.894Z,101310.88
2024-02-17T01:55:53.308Z,101308.59
2024-02-17T02:00:55.834Z,101294.16
2024-02-17T02:05:59.559Z,101304.44
2024-02-17T02:11:02.132Z,101310.69
2024-02-17T02:16:04.648Z,101319.66
2024-02-17T02:21:07.024Z,101318.00
2024-02-17T02:26:09.374Z,101312.78
2024-02-17T02:31:11.473Z,101299.38
2024-02-17T02:36:13.688Z,101308.59
2024-02-17T02:41:16.050Z,101313.62
2024-02-17T02:46:18.355Z,101295.63
2024-02-17T02:51:20.668Z,101312.16
2024-02-17T02:56:22.899Z,101304.00
2024-02-17T03:01:25.208Z,101301.69
2024-02-17T03:06:28.609Z,101281.63
2024-02-17T03:11:31.073Z,101297.28
2024-02-17T03:16:33.253Z,101309.00
2024-02-17T03:21:37.645Z,101317.12
2024-02-17T03:26:40.292Z,101306.25
2024-02-17T03:31:42.549Z,101314.59
2024-02-17T03:36:44.805Z,101322.31
2024-02-17T03:41:47.568Z,101326.06
2024-02-17T03:46:49.784Z,101325.03
2024-02-17T03:51:52.051Z,101321.69
2024-02-17T03:56:54.210Z,101337.56
2024-02-17T04:01:57.078Z,101341.94
2024-02-17T04:06:59.507Z,101336.28
2024-02-17T04:12:01.881Z,101337.16
2024-02-17T04:17:04.114Z,101336.53
2024-02-17T04:22:06.375Z,101340.94
2024-02-17T04:27:09.765Z,101332.53
2024-02-17T04:32:11.993Z,101336.25
2024-02-17T04:37:14.203Z,101345.84
2024-02-17T04:42:16.735Z,101347.72
2024-02-17T04:47:18.920Z,101355.41
2024-02-17T04:52:21.096Z,101359.78
2024-02-17T04:57:23.327Z,101362.06
2024-02-17T05:02:25.527Z,101357.84
2024-02-17T05:07:27.791Z,101361.22
2024-02-17T05:12:30.209Z,101370.22
2024-02-17T05:17:32.848Z,101364.97
2024-02-17T05:22:35.020Z,101363.75
2024-02-17T05:27:37.555Z,101363.25
2024-02-17T05:32:40.326Z,101365.75
2024-02-17T05:37:42.635Z,101370.16
2024-02-17T05:42:45.184Z,101366.78
2024-02-17T05:47:47.572Z,101372.66
2024-02-17T05:52:50.246Z,101373.25
2024-02-17T05:57:52.500Z,101386.81
2024-02-17T06:02:55.167Z,101393.13
2024-02-17T06:07:57.345Z,101400.84
2024-02-17T06:12:59.705Z,101408.81
2024-02-17T06:18:20.664Z,101412.63
2024-02-17T06:23:22.873Z,101414.53
2024-02-17T06:28:25.016Z,101414.00
2024-02-17T06:33:32.738Z,101419.50
2024-02-17T06:38:35.359Z,101437.50
2024-02-17T06:43:38.070Z,101421.22
2024-02-17T06:48:40.891Z,101442.59
2024-02-17T06:53:43.176Z,101447.00
2024-02-17T06:58:45.406Z,101446.00
2024-02-17T07:03:48.685Z,101448.56
2024-02-17T07:08:50.926Z,101459.06
2024-02-17T07:13:53.128Z,101462.00
2024-02-17T07:18:58.956Z,101458.25
2024-02-17T07:24:01.353Z,101442.31
2024-02-17T07:29:04.034Z,101439.34
2024-02-17T07:34:07.193Z,101450.41
2024-02-17T07:39:09.641Z,101443.25
2024-02-17T07:44:11.853Z,101452.38
2024-02-17T07:49:14.212Z,101461.56
2024-02-17T07:54:16.509Z,101460.84
2024-02-17T07:59:18.811Z,101470.44
2024-02-17T08:04:21.019Z,101462.22
2024-02-17T08:09:23.307Z,101460.59
2024-02-17T08:14:28.113Z,101473.59
2024-02-17T08:19:32.073Z,101459.63
2024-02-17T08:24:34.299Z,101459.63
2024-02-17T08:29:36.602Z,101468.69
2024-02-17T08:34:39.294Z,101471.50
2024-02-17T08:39:41.670Z,101464.06
2024-02-17T08:44:44.006Z,101459.06
2024-02-17T08:49:47.453Z,101473.06
2024-02-17T08:54:49.737Z,101473.41
2024-02-17T08:59:52.033Z,101468.81
2024-02-17T09:04:54.447Z,101459.91
2024-02-17T09:09:56.711Z,101456.19
2024-02-17T09:14:59.173Z,101455.19
2024-02-17T09:20:01.544Z,101460.09
2024-02-17T09:25:03.984Z,101457.78
2024-02-17T09:30:07.796Z,101445.28
2024-02-17T09:35:10.277Z,101428.31
2024-02-17T09:40:15.794Z,101431.78
2024-02-17T09:45:17.978Z,101425.66
2024-02-17T09:50:20.507Z,101433.50
2024-02-17T09:55:23.863Z,101433.44
2024-02-17T10:00:26.090Z,101429.03
2024-02-17T10:05:29.508Z,101435.38
2024-02-17T10:10:32.056Z,101428.94
2024-02-17T10:15:34.541Z,101435.25
2024-02-17T10:20:37.489Z,101442.00
2024-02-17T10:25:39.976Z,101434.72
2024-02-17T10:30:42.301Z,101434.31
2024-02-17T11:34:11.175Z,101404.66
2024-02-17T11:39:37.738Z,101405.34
2024-02-17T11:44:52.432Z,101394.62
2024-02-17T11:50:05.599Z,101376.03
2024-02-17T12:12:00.857Z,101402.38
2024-02-17T12:17:14.360Z,101411.38
2024-02-17T12:22:19.725Z,101403.00
2024-02-17T12:27:25.418Z,101400.94
2024-02-17T12:37:55.960Z,101405.34
2024-02-17T12:43:00.652Z,101408.62
2024-02-17T12:48:06.618Z,101409.81
2024-02-17T12:53:26.688Z,101408.84
2024-02-17T12:58:34.039Z,101416.87
2024-02-17T13:08:57.668Z,101402.44
2024-02-17T13:14:05.417Z,101402.81
2024-02-17T13:19:08.330Z,101407.22
2024-02-17T13:24:13.135Z,101407.16
2024-02-17T13:29:18.010Z,101425.94
2024-02-17T13:34:20.953Z,101422.94
2024-02-17T13:39:31.187Z,101439.44
2024-02-17T13:44:39.228Z,101426.44
2024-02-17T13:49:41.699Z,101450.72
2024-02-17T13:54:44.778Z,101450.31
2024-02-17T13:59:48.086Z,101458.84
2024-02-17T14:04:50.486Z,101468.97
2024-02-17T14:09:59.770Z,101466.06
2024-02-17T14:21:09.889Z,101470.72
2024-02-17T14:26:12.590Z,101475.50
2024-02-17T14:49:21.513Z,101511.56
2024-02-17T14:54:24.846Z,101516.38
2024-02-17T14:59:27.641Z,101524.56
2024-02-17T15:04:30.001Z,101526.25
2024-02-17T15:09:32.644Z,101538.53
2024-02-17T15:14:35.053Z,101563.72
2024-02-17T15:19:38.073Z,101543.56
2024-02-17T15:24:40.395Z,101547.56
2024-02-17T15:29:42.677Z,101564.84
2024-02-17T15:34:45.010Z,101568.84
2024-02-17T15:39:47.356Z,101578.19
2024-02-17T15:44:49.638Z,101575.66
2024-02-17T15:49:51.905Z,101578.34
2024-02-17T15:54:54.667Z,101581.16
2024-02-17T15:59:58.234Z,101585.50
2024-02-17T16:05:00.658Z,101592.69
2024-02-17T16:10:03.576Z,101592.00
2024-02-17T16:15:09.974Z,101606.16
2024-02-17T16:20:12.472Z,101609.78
2024-02-17T16:31:17.426Z,101627.50
2024-02-17T16:36:23.282Z,101628.62
2024-02-17T16:41:25.903Z,101657.53
2024-02-17T16:46:28.530Z,101652.78
2024-02-17T16:51:34.703Z,101659.72
2024-02-17T16:56:37.683Z,101671.16
2024-02-17T17:01:40.173Z,101680.56
2024-02-17T17:06:42.848Z,101686.59
2024-02-17T17:11:45.411Z,101691.28
2024-02-17T17:16:47.630Z,101679.38
2024-02-17T17:21:51.256Z,101671.56
2024-02-17T17:26:55.146Z,101670.09
2024-02-17T17:31:57.771Z,101695.81
2024-02-17T17:37:00.349Z,101675.47
2024-02-17T17:42:02.839Z,101696.84
2024-02-17T17:47:05.778Z,101702.25
2024-02-17T17:52:08.362Z,101693.84
2024-02-17T17:57:10.614Z,101704.37
2024-02-17T18:02:12.810Z,101714.03
2024-02-17T18:07:15.057Z,101713.44
2024-02-17T18:12:17.561Z,101719.00
2024-02-17T18:17:19.981Z,101706.38
2024-02-17T18:22:22.834Z,101709.41
2024-02-17T18:27:25.149Z,101702.50
2024-02-17T18:32:27.518Z,101705.75
2024-02-17T18:37:30.848Z,101711.44
2024-02-17T18:42:33.467Z,101715.50
2024-02-17T18:47:35.720Z,101708.63
2024-02-17T18:52:37.969Z,101705.06
2024-02-17T18:57:42.107Z,101707.50
2024-02-17T19:02:44.564Z,101712.97
2024-02-17T19:07:47.622Z,101723.03
2024-02-17T19:12:50.054Z,101723.47
2024-02-17T19:17:52.357Z,101728.63
2024-02-17T19:22:55.548Z,101741.56
2024-02-17T19:27:57.935Z,101740.59
2024-02-17T19:33:00.328Z,101736.03
2024-02-17T19:38:02.848Z,101732.78
2024-02-17T19:43:08.344Z,101735.72
2024-02-17T19:48:10.954Z,101742.81
2024-02-17T19:53:13.357Z,101740.06
2024-02-17T19:58:15.664Z,101756.59
2024-02-17T20:03:17.975Z,101752.72
2024-02-17T20:08:20.269Z,101771.63
2024-02-17T20:13:22.719Z,101765.78
2024-02-17T20:18:25.263Z,101765.25
2024-02-17T20:23:27.994Z,101766.84
2024-02-17T20:28:30.496Z,101778.87
2024-02-17T20:33:33.090Z,101780.88
2024-02-17T20:38:35.396Z,101765.16
2024-02-17T20:43:37.866Z,101781.44
2024-02-17T20:48:40.215Z,101783.47
2024-02-17T20:53:43.411Z,101793.47
2024-02-17T20:58:46.046Z,101791.19
2024-02-17T21:03:48.207Z,101804.91
2024-02-17T21:08:50.361Z,101805.06
2024-02-17T21:13:52.539Z,101825.88
2024-02-17T21:18:55.688Z,101833.41
2024-02-17T21:23:58.118Z,101834.88
2024-02-17T21:29:01.139Z,101832.28
2024-02-17T21:34:04.072Z,101830.72
2024-02-17T21:39:07.960Z,101831.66
2024-02-17T21:44:11.076Z,101842.78
2024-02-17T21:49:13.476Z,101841.28
2024-02-17T21:54:16.159Z,101846.19
2024-02-17T21:59:18.360Z,101852.56
2024-02-17T22:04:20.840Z,101851.28
2024-02-17T22:09:23.094Z,101863.97
2024-02-17T22:14:25.275Z,101875.19
2024-02-17T22:19:27.534Z,101863.34
2024-02-17T22:24:29.902Z,101878.09
2024-02-17T22:29:33.519Z,101862.62
2024-02-17T22:34:35.989Z,101863.06
2024-02-17T22:39:38.754Z,101852.56
2024-02-17T22:44:40.967Z,101841.47
2024-02-17T22:49:44.743Z,101840.56
2024-02-17T22:54:47.808Z,101841.56
2024-02-17T22:59:50.007Z,101858.69
2024-02-17T23:04:52.789Z,101850.31
2024-02-17T23:10:00.441Z,101854.41
2024-02-17T23:21:21.894Z,101850.75
2024-02-17T23:26:24.234Z,101847.78
2024-02-17T23:31:26.690Z,101843.47
2024-02-17T23:36:32.578Z,101859.06
2024-02-17T23:41:36.573Z,101833.09
2024-02-17T23:46:38.941Z,101871.59
2024-02-17T23:51:49.462Z,101867.09
2024-02-17T23:56:51.862Z,101851.50
